sensor_id;sensor_type;location;lat;lon;timestamp;P1;durP1;ratioP1;P2;durP2;ratioP2
78013;SDS011;67222;50.182;8.734;2023-02-28T05:32:09;4.60;;;2.53;;
78013;SDS011;67222;50.182;8.734;2023-02-28T05:34:36;6.03;;;2.63;;
78013;SDS011;67222;50.182;8.734;2023-02-28T05:37:02;7.82;;;3.33;;
78013;SDS011;67222;50.182;8.734;2023-02-28T05:39:28;5.60;;;2.85;;
78013;SDS011;67222;50.182;8.734;2023-02-28T05:41:53;4.63;;;2.70;;
78013;SDS011;67222;50.182;8.734;2023-02-28T05:44:18;10.00;;;2.90;;
78013;SDS011;67222;50.182;8.734;2023-02-28T05:46:44;6.40;;;3.33;;
78013;SDS011;67222;50.182;8.734;2023-02-28T05:49:09;5.37;;;2.80;;
78013;SDS011;67222;50.182;8.734;2023-02-28T05:51:34;4.63;;;3.13;;
78013;SDS011;67222;50.182;8.734;2023-02-28T05:54:01;6.05;;;3.05;;
78013;SDS011;67222;50.182;8.734;2023-02-28T05:56:26;6.57;;;2.75;;
78013;SDS011;67222;50.182;8.734;2023-02-28T05:58:52;4.88;;;2.20;;
78013;SDS011;67222;50.182;8.734;2023-02-28T06:03:46;4.80;;;2.75;;
78013;SDS011;67222;50.182;8.734;2023-02-28T06:06:11;5.40;;;2.70;;
78013;SDS011;67222;50.182;8.734;2023-02-28T06:08:37;5.97;;;2.80;;
78013;SDS011;67222;50.182;8.734;2023-02-28T06:11:03;5.03;;;2.40;;
78013;SDS011;67222;50.182;8.734;2023-02-28T06:13:28;4.90;;;2.50;;
78013;SDS011;67222;50.182;8.734;2023-02-28T06:15:54;4.50;;;2.83;;
78013;SDS011;67222;50.182;8.734;2023-02-28T06:18:19;5.37;;;2.73;;
78013;SDS011;67222;50.182;8.734;2023-02-28T06:20:44;6.03;;;2.53;;
78013;SDS011;67222;50.182;8.734;2023-02-28T06:23:09;3.60;;;2.42;;
78013;SDS011;67222;50.182;8.734;2023-02-28T06:25:35;8.03;;;3.20;;
78013;SDS011;67222;50.182;8.734;2023-02-28T06:28:00;5.63;;;2.67;;
78013;SDS011;67222;50.182;8.734;2023-02-28T06:30:25;4.10;;;2.57;;
78013;SDS011;67222;50.182;8.734;2023-02-28T06:32:53;5.10;;;2.67;;
78013;SDS011;67222;50.182;8.734;2023-02-28T06:35:19;6.90;;;2.42;;
78013;SDS011;67222;50.182;8.734;2023-02-28T06:37:44;3.70;;;2.30;;
78013;SDS011;67222;50.182;8.734;2023-02-28T06:40:10;5.10;;;2.50;;
78013;SDS011;67222;50.182;8.734;2023-02-28T06:42:36;4.00;;;2.95;;
78013;SDS011;67222;50.182;8.734;2023-02-28T06:45:01;11.40;;;2.78;;
78013;SDS011;67222;50.182;8.734;2023-02-28T06:47:30;4.65;;;2.13;;
78013;SDS011;67222;50.182;8.734;2023-02-28T06:49:56;5.38;;;2.63;;
78013;SDS011;67222;50.182;8.734;2023-02-28T06:52:21;6.57;;;3.33;;
78013;SDS011;67222;50.182;8.734;2023-02-28T06:54:47;4.60;;;2.40;;
78013;SDS011;67222;50.182;8.734;2023-02-28T06:57:12;4.13;;;2.28;;
78013;SDS011;67222;50.182;8.734;2023-02-28T06:59:37;6.10;;;2.37;;
78013;SDS011;67222;50.182;8.734;2023-02-28T07:02:03;4.30;;;2.20;;
78013;SDS011;67222;50.182;8.734;2023-02-28T07:04:28;5.20;;;2.37;;
78013;SDS011;67222;50.182;8.734;2023-02-28T07:06:54;3.47;;;1.97;;
78013;SDS011;67222;50.182;8.734;2023-02-28T07:09:21;4.30;;;2.58;;
78013;SDS011;67222;50.182;8.734;2023-02-28T07:11:47;4.35;;;2.17;;
78013;SDS011;67222;50.182;8.734;2023-02-28T07:14:12;4.30;;;2.30;;
78013;SDS011;67222;50.182;8.734;2023-02-28T07:16:37;5.27;;;2.93;;
78013;SDS011;67222;50.182;8.734;2023-02-28T07:19:02;4.00;;;2.30;;
78013;SDS011;67222;50.182;8.734;2023-02-28T07:21:28;4.03;;;2.57;;
78013;SDS011;67222;50.182;8.734;2023-02-28T07:23:53;5.40;;;2.27;;
78013;SDS011;67222;50.182;8.734;2023-02-28T07:26:19;4.20;;;2.20;;
78013;SDS011;67222;50.182;8.734;2023-02-28T07:28:46;4.93;;;2.45;;
78013;SDS011;67222;50.182;8.734;2023-02-28T07:31:13;5.65;;;2.80;;
78013;SDS011;67222;50.182;8.734;2023-02-28T07:33:39;5.95;;;2.70;;
78013;SDS011;67222;50.182;8.734;2023-02-28T07:36:06;4.45;;;2.38;;
78013;SDS011;67222;50.182;8.734;2023-02-28T07:38:34;4.93;;;2.60;;
78013;SDS011;67222;50.182;8.734;2023-02-28T07:41:00;5.88;;;2.63;;
78013;SDS011;67222;50.182;8.734;2023-02-28T07:43:29;4.75;;;2.72;;
78013;SDS011;67222;50.182;8.734;2023-02-28T07:45:55;7.40;;;3.50;;
78013;SDS011;67222;50.182;8.734;2023-02-28T07:48:20;5.87;;;2.20;;
78013;SDS011;67222;50.182;8.734;2023-02-28T07:50:53;7.83;;;2.90;;
78013;SDS011;67222;50.182;8.734;2023-02-28T07:53:20;4.63;;;2.30;;
78013;SDS011;67222;50.182;8.734;2023-02-28T07:55:45;6.83;;;2.60;;
78013;SDS011;67222;50.182;8.734;2023-02-28T07:58:10;4.33;;;2.67;;
78013;SDS011;67222;50.182;8.734;2023-02-28T08:00:36;6.97;;;2.77;;
78013;SDS011;67222;50.182;8.734;2023-02-28T08:03:01;4.63;;;2.70;;
78013;SDS011;67222;50.182;8.734;2023-02-28T08:05:26;6.73;;;2.90;;
78013;SDS011;67222;50.182;8.734;2023-02-28T08:07:51;4.87;;;2.77;;
78013;SDS011;67222;50.182;8.734;2023-02-28T08:10:18;5.97;;;2.65;;
78013;SDS011;67222;50.182;8.734;2023-02-28T08:12:43;4.30;;;2.50;;
78013;SDS011;67222;50.182;8.734;2023-02-28T08:15:08;4.87;;;2.50;;
78013;SDS011;67222;50.182;8.734;2023-02-28T08:17:34;3.80;;;2.17;;
78013;SDS011;67222;50.182;8.734;2023-02-28T08:19:59;4.93;;;2.63;;
78013;SDS011;67222;50.182;8.734;2023-02-28T08:22:24;5.63;;;2.50;;
78013;SDS011;67222;50.182;8.734;2023-02-28T08:24:50;7.67;;;2.87;;
78013;SDS011;67222;50.182;8.734;2023-02-28T08:27:15;5.30;;;2.80;;
78013;SDS011;67222;50.182;8.734;2023-02-28T08:29:40;5.50;;;2.67;;
78013;SDS011;67222;50.182;8.734;2023-02-28T08:32:06;5.70;;;2.50;;
78013;SDS011;67222;50.182;8.734;2023-02-28T08:34:32;4.65;;;2.22;;
78013;SDS011;67222;50.182;8.734;2023-02-28T08:36:57;5.47;;;2.30;;
78013;SDS011;67222;50.182;8.734;2023-02-28T08:39:22;5.50;;;2.67;;
78013;SDS011;67222;50.182;8.734;2023-02-28T08:41:48;4.87;;;2.50;;
78013;SDS011;67222;50.182;8.734;2023-02-28T08:44:13;4.17;;;2.20;;
78013;SDS011;67222;50.182;8.734;2023-02-28T08:46:38;5.80;;;2.17;;
78013;SDS011;67222;50.182;8.734;2023-02-28T08:49:04;4.70;;;2.15;;
78013;SDS011;67222;50.182;8.734;2023-02-28T08:51:29;4.85;;;2.30;;
78013;SDS011;67222;50.182;8.734;2023-02-28T08:53:57;4.25;;;2.08;;
78013;SDS011;67222;50.182;8.734;2023-02-28T08:56:24;5.47;;;2.50;;
78013;SDS011;67222;50.182;8.734;2023-02-28T08:58:51;4.07;;;2.30;;
78013;SDS011;67222;50.182;8.734;2023-02-28T09:01:17;3.97;;;2.27;;
78013;SDS011;67222;50.182;8.734;2023-02-28T09:03:46;4.20;;;1.85;;
78013;SDS011;67222;50.182;8.734;2023-02-28T09:06:13;3.70;;;2.20;;
78013;SDS011;67222;50.182;8.734;2023-02-28T09:08:40;4.50;;;2.40;;
78013;SDS011;67222;50.182;8.734;2023-02-28T09:11:06;4.18;;;2.22;;
78013;SDS011;67222;50.182;8.734;2023-02-28T09:13:31;4.95;;;2.28;;
78013;SDS011;67222;50.182;8.734;2023-02-28T09:15:58;5.68;;;2.50;;
78013;SDS011;67222;50.182;8.734;2023-02-28T09:18:24;3.65;;;2.08;;
78013;SDS011;67222;50.182;8.734;2023-02-28T09:20:49;5.55;;;2.50;;
78013;SDS011;67222;50.182;8.734;2023-02-28T09:23:15;4.15;;;2.00;;
78013;SDS011;67222;50.182;8.734;2023-02-28T09:25:51;3.72;;;1.92;;
78013;SDS011;67222;50.182;8.734;2023-02-28T09:28:18;5.03;;;2.47;;
78013;SDS011;67222;50.182;8.734;2023-02-28T09:30:45;4.30;;;2.30;;
78013;SDS011;67222;50.182;8.734;2023-02-28T09:33:12;4.57;;;2.00;;
78013;SDS011;67222;50.182;8.734;2023-02-28T09:35:38;3.65;;;1.95;;
78013;SDS011;67222;50.182;8.734;2023-02-28T09:38:03;4.85;;;2.20;;
78013;SDS011;67222;50.182;8.734;2023-02-28T09:40:29;4.63;;;2.42;;
78013;SDS011;67222;50.182;8.734;2023-02-28T09:42:56;4.55;;;2.33;;
78013;SDS011;67222;50.182;8.734;2023-02-28T09:45:30;4.03;;;2.30;;
78013;SDS011;67222;50.182;8.734;2023-02-28T09:48:01;5.13;;;2.17;;
78013;SDS011;67222;50.182;8.734;2023-02-28T09:53:19;3.85;;;2.10;;
78013;SDS011;67222;50.182;8.734;2023-02-28T09:55:47;4.03;;;1.85;;
78013;SDS011;67222;50.182;8.734;2023-02-28T10:00:49;3.80;;;2.20;;
78013;SDS011;67222;50.182;8.734;2023-02-28T10:03:33;5.40;;;2.38;;
78013;SDS011;67222;50.182;8.734;2023-02-28T10:06:06;5.57;;;2.25;;
78013;SDS011;67222;50.182;8.734;2023-02-28T10:11:24;4.28;;;2.45;;
78013;SDS011;67222;50.182;8.734;2023-02-28T10:13:53;4.10;;;2.15;;
78013;SDS011;67222;50.182;8.734;2023-02-28T10:19:04;6.03;;;2.60;;
78013;SDS011;67222;50.182;8.734;2023-02-28T10:21:36;5.80;;;2.72;;
78013;SDS011;67222;50.182;8.734;2023-02-28T10:24:16;5.03;;;2.55;;
78013;SDS011;67222;50.182;8.734;2023-02-28T10:26:43;5.72;;;3.00;;
78013;SDS011;67222;50.182;8.734;2023-02-28T10:29:10;5.88;;;2.97;;
78013;SDS011;67222;50.182;8.734;2023-02-28T10:31:36;5.75;;;2.72;;
78013;SDS011;67222;50.182;8.734;2023-02-28T10:34:01;6.88;;;3.00;;
78013;SDS011;67222;50.182;8.734;2023-02-28T10:36:28;5.28;;;2.80;;
78013;SDS011;67222;50.182;8.734;2023-02-28T10:38:53;5.72;;;3.10;;
78013;SDS011;67222;50.182;8.734;2023-02-28T10:41:27;4.70;;;2.58;;
78013;SDS011;67222;50.182;8.734;2023-02-28T10:43:53;5.50;;;2.88;;
78013;SDS011;67222;50.182;8.734;2023-02-28T10:46:39;4.95;;;2.70;;
78013;SDS011;67222;50.182;8.734;2023-02-28T10:49:11;5.13;;;2.65;;
78013;SDS011;67222;50.182;8.734;2023-02-28T10:51:39;5.00;;;2.80;;
78013;SDS011;67222;50.182;8.734;2023-02-28T10:54:10;4.35;;;2.90;;
78013;SDS011;67222;50.182;8.734;2023-02-28T10:56:40;5.50;;;2.67;;
78013;SDS011;67222;50.182;8.734;2023-02-28T11:01:54;4.57;;;2.80;;
78013;SDS011;67222;50.182;8.734;2023-02-28T11:04:32;5.85;;;3.00;;
78013;SDS011;67222;50.182;8.734;2023-02-28T11:09:48;5.00;;;3.05;;
78013;SDS011;67222;50.182;8.734;2023-02-28T11:12:26;4.97;;;2.80;;
78013;SDS011;67222;50.182;8.734;2023-02-28T11:15:06;4.55;;;2.85;;
78013;SDS011;67222;50.182;8.734;2023-02-28T11:17:53;4.20;;;2.88;;
78013;SDS011;67222;50.182;8.734;2023-02-28T11:20:22;5.65;;;2.88;;
78013;SDS011;67222;50.182;8.734;2023-02-28T11:22:49;5.25;;;2.70;;
78013;SDS011;67222;50.182;8.734;2023-02-28T11:25:19;6.65;;;3.05;;
78013;SDS011;67222;50.182;8.734;2023-02-28T11:35:53;5.25;;;3.10;;
78013;SDS011;67222;50.182;8.734;2023-02-28T11:38:24;5.18;;;3.10;;
78013;SDS011;67222;50.182;8.734;2023-02-28T11:43:19;4.53;;;2.93;;
78013;SDS011;67222;50.182;8.734;2023-02-28T11:51:33;5.53;;;3.05;;
78013;SDS011;67222;50.182;8.734;2023-02-28T11:56:44;4.82;;;3.00;;
78013;SDS011;67222;50.182;8.734;2023-02-28T12:03:01;5.85;;;3.10;;
78013;SDS011;67222;50.182;8.734;2023-02-28T12:13:08;4.80;;;3.30;;
78013;SDS011;67222;50.182;8.734;2023-02-28T12:24:39;5.07;;;2.85;;
78013;SDS011;67222;50.182;8.734;2023-02-28T12:27:10;5.75;;;3.60;;
78013;SDS011;67222;50.182;8.734;2023-02-28T12:30:00;5.93;;;3.40;;
78013;SDS011;67222;50.182;8.734;2023-02-28T12:32:30;6.85;;;3.90;;
78013;SDS011;67222;50.182;8.734;2023-02-28T12:40:05;5.80;;;2.85;;
78013;SDS011;67222;50.182;8.734;2023-02-28T12:42:38;6.40;;;3.75;;
78013;SDS011;67222;50.182;8.734;2023-02-28T12:45:11;6.40;;;3.95;;
78013;SDS011;67222;50.182;8.734;2023-02-28T12:47:43;7.38;;;3.20;;
78013;SDS011;67222;50.182;8.734;2023-02-28T13:04:08;4.22;;;2.95;;
78013;SDS011;67222;50.182;8.734;2023-02-28T13:09:53;6.40;;;3.90;;
78013;SDS011;67222;50.182;8.734;2023-02-28T13:12:23;6.10;;;3.00;;
78013;SDS011;67222;50.182;8.734;2023-02-28T13:14:49;5.30;;;2.95;;
78013;SDS011;67222;50.182;8.734;2023-02-28T13:17:19;4.32;;;2.80;;
78013;SDS011;67222;50.182;8.734;2023-02-28T13:27:51;6.07;;;3.75;;
78013;SDS011;67222;50.182;8.734;2023-02-28T13:33:29;5.43;;;3.35;;
78013;SDS011;67222;50.182;8.734;2023-02-28T13:38:42;5.05;;;2.88;;
78013;SDS011;67222;50.182;8.734;2023-02-28T13:46:33;5.85;;;3.40;;
78013;SDS011;67222;50.182;8.734;2023-02-28T14:02:34;6.43;;;3.40;;
78013;SDS011;67222;50.182;8.734;2023-02-28T14:05:19;4.53;;;3.20;;
78013;SDS011;67222;50.182;8.734;2023-02-28T14:07:55;4.50;;;2.97;;
78013;SDS011;67222;50.182;8.734;2023-02-28T14:10:33;6.18;;;3.80;;
78013;SDS011;67222;50.182;8.734;2023-02-28T14:15:57;5.72;;;3.00;;
78013;SDS011;67222;50.182;8.734;2023-02-28T14:21:01;7.03;;;3.80;;
78013;SDS011;67222;50.182;8.734;2023-02-28T14:24:29;5.28;;;3.55;;
78013;SDS011;67222;50.182;8.734;2023-02-28T14:26:55;5.30;;;3.38;;
78013;SDS011;67222;50.182;8.734;2023-02-28T14:29:42;6.00;;;3.35;;
78013;SDS011;67222;50.182;8.734;2023-02-28T14:38:06;7.43;;;3.88;;
78013;SDS011;67222;50.182;8.734;2023-02-28T14:40:41;11.68;;;5.65;;
78013;SDS011;67222;50.182;8.734;2023-02-28T14:43:18;6.05;;;4.00;;
78013;SDS011;67222;50.182;8.734;2023-02-28T14:45:49;7.03;;;3.83;;
78013;SDS011;67222;50.182;8.734;2023-02-28T14:48:16;6.35;;;3.85;;
78013;SDS011;67222;50.182;8.734;2023-02-28T14:50:48;6.15;;;4.00;;
78013;SDS011;67222;50.182;8.734;2023-02-28T14:53:17;4.82;;;3.60;;
78013;SDS011;67222;50.182;8.734;2023-02-28T14:55:45;6.88;;;3.30;;
78013;SDS011;67222;50.182;8.734;2023-02-28T14:58:21;5.55;;;3.95;;
78013;SDS011;67222;50.182;8.734;2023-02-28T15:00:56;5.43;;;3.65;;
78013;SDS011;67222;50.182;8.734;2023-02-28T15:03:30;5.97;;;3.22;;
78013;SDS011;67222;50.182;8.734;2023-02-28T15:06:14;5.35;;;3.70;;
78013;SDS011;67222;50.182;8.734;2023-02-28T15:08:42;7.05;;;3.47;;
78013;SDS011;67222;50.182;8.734;2023-02-28T15:13:47;4.97;;;3.13;;
78013;SDS011;67222;50.182;8.734;2023-02-28T15:16:19;6.38;;;3.38;;
78013;SDS011;67222;50.182;8.734;2023-02-28T15:18:48;5.95;;;3.70;;
78013;SDS011;67222;50.182;8.734;2023-02-28T15:21:20;5.90;;;3.83;;
78013;SDS011;67222;50.182;8.734;2023-02-28T15:23:56;7.30;;;3.85;;
78013;SDS011;67222;50.182;8.734;2023-02-28T15:26:27;7.13;;;3.90;;
78013;SDS011;67222;50.182;8.734;2023-02-28T15:29:07;5.38;;;3.03;;
78013;SDS011;67222;50.182;8.734;2023-02-28T15:31:43;5.22;;;3.33;;
78013;SDS011;67222;50.182;8.734;2023-02-28T15:34:20;6.35;;;3.50;;
78013;SDS011;67222;50.182;8.734;2023-02-28T15:37:00;5.93;;;3.47;;
78013;SDS011;67222;50.182;8.734;2023-02-28T15:39:26;7.82;;;3.88;;
78013;SDS011;67222;50.182;8.734;2023-02-28T15:42:09;6.32;;;3.40;;
78013;SDS011;67222;50.182;8.734;2023-02-28T15:44:36;4.70;;;3.33;;
78013;SDS011;67222;50.182;8.734;2023-02-28T15:47:02;6.27;;;3.27;;
78013;SDS011;67222;50.182;8.734;2023-02-28T15:49:38;6.43;;;3.28;;
78013;SDS011;67222;50.182;8.734;2023-02-28T15:52:12;7.43;;;4.05;;
78013;SDS011;67222;50.182;8.734;2023-02-28T15:54:40;6.00;;;3.38;;
78013;SDS011;67222;50.182;8.734;2023-02-28T15:57:10;5.22;;;3.35;;
78013;SDS011;67222;50.182;8.734;2023-02-28T15:59:42;5.50;;;3.40;;
78013;SDS011;67222;50.182;8.734;2023-02-28T16:02:17;6.68;;;3.50;;
78013;SDS011;67222;50.182;8.734;2023-02-28T16:07:33;6.72;;;3.45;;
78013;SDS011;67222;50.182;8.734;2023-02-28T16:09:59;6.00;;;3.63;;
78013;SDS011;67222;50.182;8.734;2023-02-28T16:12:26;5.88;;;3.33;;
78013;SDS011;67222;50.182;8.734;2023-02-28T16:14:54;6.50;;;3.33;;
78013;SDS011;67222;50.182;8.734;2023-02-28T16:17:22;5.97;;;3.58;;
78013;SDS011;67222;50.182;8.734;2023-02-28T16:19:50;6.35;;;3.78;;
78013;SDS011;67222;50.182;8.734;2023-02-28T16:22:16;6.53;;;4.03;;
78013;SDS011;67222;50.182;8.734;2023-02-28T16:24:41;6.70;;;3.73;;
78013;SDS011;67222;50.182;8.734;2023-02-28T16:27:09;6.13;;;3.73;;
78013;SDS011;67222;50.182;8.734;2023-02-28T16:29:43;6.13;;;3.47;;
78013;SDS011;67222;50.182;8.734;2023-02-28T16:32:10;6.63;;;3.55;;
78013;SDS011;67222;50.182;8.734;2023-02-28T16:34:37;7.05;;;4.32;;
78013;SDS011;67222;50.182;8.734;2023-02-28T16:37:02;5.93;;;3.50;;
78013;SDS011;67222;50.182;8.734;2023-02-28T16:39:29;7.07;;;4.07;;
78013;SDS011;67222;50.182;8.734;2023-02-28T16:41:54;6.43;;;3.60;;
78013;SDS011;67222;50.182;8.734;2023-02-28T16:44:32;5.47;;;3.47;;
78013;SDS011;67222;50.182;8.734;2023-02-28T16:46:59;8.57;;;4.13;;
78013;SDS011;67222;50.182;8.734;2023-02-28T16:49:25;7.13;;;4.07;;
78013;SDS011;67222;50.182;8.734;2023-02-28T16:51:51;11.00;;;4.20;;
78013;SDS011;67222;50.182;8.734;2023-02-28T16:54:17;5.88;;;3.47;;
78013;SDS011;67222;50.182;8.734;2023-02-28T16:56:46;7.40;;;4.00;;
78013;SDS011;67222;50.182;8.734;2023-02-28T16:59:13;7.53;;;4.70;;
78013;SDS011;67222;50.182;8.734;2023-02-28T17:01:39;7.13;;;3.70;;
78013;SDS011;67222;50.182;8.734;2023-02-28T17:04:05;7.57;;;4.22;;
78013;SDS011;67222;50.182;8.734;2023-02-28T17:06:30;7.63;;;3.72;;
78013;SDS011;67222;50.182;8.734;2023-02-28T17:08:56;7.53;;;3.70;;
78013;SDS011;67222;50.182;8.734;2023-02-28T17:11:23;6.50;;;3.47;;
78013;SDS011;67222;50.182;8.734;2023-02-28T17:13:49;6.82;;;3.40;;
78013;SDS011;67222;50.182;8.734;2023-02-28T17:16:20;6.45;;;3.70;;
78013;SDS011;67222;50.182;8.734;2023-02-28T17:18:53;6.63;;;3.95;;
78013;SDS011;67222;50.182;8.734;2023-02-28T17:23:46;6.37;;;3.27;;
78013;SDS011;67222;50.182;8.734;2023-02-28T17:26:12;6.53;;;3.17;;
78013;SDS011;67222;50.182;8.734;2023-02-28T17:28:39;6.30;;;3.33;;
78013;SDS011;67222;50.182;8.734;2023-02-28T17:31:04;7.53;;;3.53;;
78013;SDS011;67222;50.182;8.734;2023-02-28T17:33:30;7.00;;;3.70;;
78013;SDS011;67222;50.182;8.734;2023-02-28T17:35:55;7.10;;;3.50;;
78013;SDS011;67222;50.182;8.734;2023-02-28T17:38:20;6.28;;;3.38;;
78013;SDS011;67222;50.182;8.734;2023-02-28T17:40:48;7.05;;;3.75;;
78013;SDS011;67222;50.182;8.734;2023-02-28T17:43:13;6.43;;;3.78;;
78013;SDS011;67222;50.182;8.734;2023-02-28T17:45:39;6.05;;;3.60;;
78013;SDS011;67222;50.182;8.734;2023-02-28T17:48:05;5.88;;;3.38;;
78013;SDS011;67222;50.182;8.734;2023-02-28T17:50:31;7.43;;;4.13;;
78013;SDS011;67222;50.182;8.734;2023-02-28T17:52:56;6.90;;;3.35;;
78013;SDS011;67222;50.182;8.734;2023-02-28T17:55:23;7.47;;;3.85;;
78013;SDS011;67222;50.182;8.734;2023-02-28T17:57:48;9.00;;;4.28;;
78013;SDS011;67222;50.182;8.734;2023-02-28T18:00:14;7.63;;;4.30;;
78013;SDS011;67222;50.182;8.734;2023-02-28T18:02:42;6.10;;;4.03;;
78013;SDS011;67222;50.182;8.734;2023-02-28T18:05:08;6.55;;;3.47;;
78013;SDS011;67222;50.182;8.734;2023-02-28T18:07:35;6.22;;;3.83;;
78013;SDS011;67222;50.182;8.734;2023-02-28T18:10:02;7.68;;;3.72;;
78013;SDS011;67222;50.182;8.734;2023-02-28T18:12:28;7.43;;;4.28;;
78013;SDS011;67222;50.182;8.734;2023-02-28T18:14:53;10.18;;;3.78;;
78013;SDS011;67222;50.182;8.734;2023-02-28T18:17:18;8.27;;;3.95;;
78013;SDS011;67222;50.182;8.734;2023-02-28T18:19:44;8.63;;;3.93;;
78013;SDS011;67222;50.182;8.734;2023-02-28T18:22:09;8.60;;;3.83;;
78013;SDS011;67222;50.182;8.734;2023-02-28T18:24:34;9.30;;;4.20;;
78013;SDS011;67222;50.182;8.734;2023-02-28T18:27:00;6.85;;;4.05;;
78013;SDS011;67222;50.182;8.734;2023-02-28T18:29:26;8.18;;;3.80;;
78013;SDS011;67222;50.182;8.734;2023-02-28T18:31:53;6.70;;;3.90;;
78013;SDS011;67222;50.182;8.734;2023-02-28T18:34:19;7.18;;;4.13;;
78013;SDS011;67222;50.182;8.734;2023-02-28T18:36:46;7.72;;;4.25;;
78013;SDS011;67222;50.182;8.734;2023-02-28T18:39:13;7.63;;;3.95;;
78013;SDS011;67222;50.182;8.734;2023-02-28T18:41:39;7.95;;;3.97;;
78013;SDS011;67222;50.182;8.734;2023-02-28T18:44:04;6.88;;;4.10;;
78013;SDS011;67222;50.182;8.734;2023-02-28T18:46:30;7.10;;;3.90;;
78013;SDS011;67222;50.182;8.734;2023-02-28T18:48:55;9.90;;;4.20;;
78013;SDS011;67222;50.182;8.734;2023-02-28T18:51:22;7.87;;;3.97;;
78013;SDS011;67222;50.182;8.734;2023-02-28T18:53:48;7.50;;;3.95;;
78013;SDS011;67222;50.182;8.734;2023-02-28T18:56:15;9.18;;;3.80;;
78013;SDS011;67222;50.182;8.734;2023-02-28T18:58:43;7.07;;;4.22;;
78013;SDS011;67222;50.182;8.734;2023-02-28T19:01:15;5.78;;;3.80;;
78013;SDS011;67222;50.182;8.734;2023-02-28T19:03:46;6.65;;;3.75;;
78013;SDS011;67222;50.182;8.734;2023-02-28T19:06:13;7.05;;;4.45;;
78013;SDS011;67222;50.182;8.734;2023-02-28T19:08:40;7.93;;;4.22;;
78013;SDS011;67222;50.182;8.734;2023-02-28T19:11:09;6.87;;;3.83;;
78013;SDS011;67222;50.182;8.734;2023-02-28T19:13:36;8.20;;;4.65;;
78013;SDS011;67222;50.182;8.734;2023-02-28T19:16:02;10.52;;;4.25;;
78013;SDS011;67222;50.182;8.734;2023-02-28T19:18:28;8.00;;;3.85;;
78013;SDS011;67222;50.182;8.734;2023-02-28T19:20:54;10.37;;;4.27;;
78013;SDS011;67222;50.182;8.734;2023-02-28T19:23:19;8.23;;;4.63;;
78013;SDS011;67222;50.182;8.734;2023-02-28T19:25:44;9.13;;;4.40;;
78013;SDS011;67222;50.182;8.734;2023-02-28T19:28:10;7.38;;;4.13;;
78013;SDS011;67222;50.182;8.734;2023-02-28T19:30:35;8.03;;;4.40;;
78013;SDS011;67222;50.182;8.734;2023-02-28T19:33:01;7.25;;;4.20;;
78013;SDS011;67222;50.182;8.734;2023-02-28T19:35:28;9.43;;;4.68;;
78013;SDS011;67222;50.182;8.734;2023-02-28T19:37:53;9.18;;;4.93;;
78013;SDS011;67222;50.182;8.734;2023-02-28T19:40:19;7.95;;;4.70;;
78013;SDS011;67222;50.182;8.734;2023-02-28T19:42:44;8.03;;;4.37;;
78013;SDS011;67222;50.182;8.734;2023-02-28T19:45:10;9.02;;;4.82;;
78013;SDS011;67222;50.182;8.734;2023-02-28T19:47:38;9.45;;;4.78;;
78013;SDS011;67222;50.182;8.734;2023-02-28T19:50:05;7.40;;;4.28;;
78013;SDS011;67222;50.182;8.734;2023-02-28T19:52:31;10.82;;;5.55;;
78013;SDS011;67222;50.182;8.734;2023-02-28T19:54:56;7.90;;;4.83;;
78013;SDS011;67222;50.182;8.734;2023-02-28T19:57:21;8.93;;;4.83;;
78013;SDS011;67222;50.182;8.734;2023-02-28T19:59:47;8.15;;;4.93;;
78013;SDS011;67222;50.182;8.734;2023-02-28T20:02:12;7.37;;;4.43;;
78013;SDS011;67222;50.182;8.734;2023-02-28T20:04:39;10.30;;;5.10;;
78013;SDS011;67222;50.182;8.734;2023-02-28T20:07:04;7.70;;;4.73;;
78013;SDS011;67222;50.182;8.734;2023-02-28T20:09:29;8.00;;;4.97;;
78013;SDS011;67222;50.182;8.734;2023-02-28T20:11:55;8.23;;;4.97;;
78013;SDS011;67222;50.182;8.734;2023-02-28T20:14:23;9.85;;;4.55;;
78013;SDS011;67222;50.182;8.734;2023-02-28T20:16:48;9.80;;;5.63;;
78013;SDS011;67222;50.182;8.734;2023-02-28T20:19:14;7.97;;;4.73;;
78013;SDS011;67222;50.182;8.734;2023-02-28T20:21:39;9.30;;;5.27;;
78013;SDS011;67222;50.182;8.734;2023-02-28T20:24:06;9.07;;;5.15;;
78013;SDS011;67222;50.182;8.734;2023-02-28T20:26:31;9.23;;;5.35;;
78013;SDS011;67222;50.182;8.734;2023-02-28T20:28:57;8.60;;;5.50;;
78013;SDS011;67222;50.182;8.734;2023-02-28T20:31:23;6.90;;;4.80;;
78013;SDS011;67222;50.182;8.734;2023-02-28T20:33:49;10.10;;;5.40;;
78013;SDS011;67222;50.182;8.734;2023-02-28T20:36:15;9.60;;;5.38;;
78013;SDS011;67222;50.182;8.734;2023-02-28T20:38:43;7.95;;;4.50;;
78013;SDS011;67222;50.182;8.734;2023-02-28T20:41:09;9.18;;;5.18;;
78013;SDS011;67222;50.182;8.734;2023-02-28T20:43:34;9.57;;;5.38;;
78013;SDS011;67222;50.182;8.734;2023-02-28T20:46:00;9.23;;;4.88;;
78013;SDS011;67222;50.182;8.734;2023-02-28T20:48:26;8.07;;;5.07;;
78013;SDS011;67222;50.182;8.734;2023-02-28T20:50:54;11.05;;;5.95;;
78013;SDS011;67222;50.182;8.734;2023-02-28T20:53:21;8.85;;;5.43;;
78013;SDS011;67222;50.182;8.734;2023-02-28T20:55:55;10.30;;;5.28;;
78013;SDS011;67222;50.182;8.734;2023-02-28T20:58:23;9.52;;;5.05;;
78013;SDS011;67222;50.182;8.734;2023-02-28T21:00:49;9.45;;;5.28;;
78013;SDS011;67222;50.182;8.734;2023-02-28T21:03:14;10.32;;;5.40;;
78013;SDS011;67222;50.182;8.734;2023-02-28T21:05:40;10.30;;;5.27;;
78013;SDS011;67222;50.182;8.734;2023-02-28T21:08:05;9.27;;;5.70;;
78013;SDS011;67222;50.182;8.734;2023-02-28T21:10:31;10.75;;;5.35;;
78013;SDS011;67222;50.182;8.734;2023-02-28T21:12:56;11.13;;;5.70;;
78013;SDS011;67222;50.182;8.734;2023-02-28T21:15:22;10.38;;;6.10;;
78013;SDS011;67222;50.182;8.734;2023-02-28T21:17:48;11.20;;;5.90;;
78013;SDS011;67222;50.182;8.734;2023-02-28T21:20:14;9.63;;;6.07;;
78013;SDS011;67222;50.182;8.734;2023-02-28T21:22:45;13.23;;;5.90;;
78013;SDS011;67222;50.182;8.734;2023-02-28T21:25:14;11.20;;;6.55;;
78013;SDS011;67222;50.182;8.734;2023-02-28T21:27:39;12.35;;;6.78;;
78013;SDS011;67222;50.182;8.734;2023-02-28T21:30:06;8.77;;;5.57;;
78013;SDS011;67222;50.182;8.734;2023-02-28T21:32:32;10.75;;;5.82;;
78013;SDS011;67222;50.182;8.734;2023-02-28T21:34:57;11.52;;;5.72;;
78013;SDS011;67222;50.182;8.734;2023-02-28T21:37:22;11.88;;;6.45;;
78013;SDS011;67222;50.182;8.734;2023-02-28T21:39:48;9.60;;;5.83;;
78013;SDS011;67222;50.182;8.734;2023-02-28T21:42:13;10.43;;;5.70;;
78013;SDS011;67222;50.182;8.734;2023-02-28T21:44:38;11.27;;;5.83;;
78013;SDS011;67222;50.182;8.734;2023-02-28T21:47:04;10.87;;;6.03;;
78013;SDS011;67222;50.182;8.734;2023-02-28T21:49:29;11.43;;;5.80;;
78013;SDS011;67222;50.182;8.734;2023-02-28T21:51:54;12.02;;;5.57;;
78013;SDS011;67222;50.182;8.734;2023-02-28T21:54:20;10.82;;;5.75;;
78013;SDS011;67222;50.182;8.734;2023-02-28T21:56:45;10.85;;;6.00;;
78013;SDS011;67222;50.182;8.734;2023-02-28T21:59:10;13.07;;;6.30;;
78013;SDS011;67222;50.182;8.734;2023-02-28T22:01:37;10.33;;;6.17;;
78013;SDS011;67222;50.182;8.734;2023-02-28T22:04:05;11.13;;;6.07;;
78013;SDS011;67222;50.182;8.734;2023-02-28T22:06:34;10.55;;;5.80;;
78013;SDS011;67222;50.182;8.734;2023-02-28T22:09:02;12.25;;;5.45;;
78013;SDS011;67222;50.182;8.734;2023-02-28T22:16:23;9.85;;;5.18;;
78013;SDS011;67222;50.182;8.734;2023-02-28T22:18:49;9.98;;;4.88;;
78013;SDS011;67222;50.182;8.734;2023-02-28T22:21:15;11.40;;;5.38;;
78013;SDS011;67222;50.182;8.734;2023-02-28T22:23:41;12.32;;;5.85;;
78013;SDS011;67222;50.182;8.734;2023-02-28T22:26:09;10.27;;;5.28;;
78013;SDS011;67222;50.182;8.734;2023-02-28T22:28:36;11.55;;;5.97;;
78013;SDS011;67222;50.182;8.734;2023-02-28T22:31:18;12.20;;;6.32;;
78013;SDS011;67222;50.182;8.734;2023-02-28T22:33:44;11.68;;;6.65;;
78013;SDS011;67222;50.182;8.734;2023-02-28T22:36:12;13.00;;;6.40;;
78013;SDS011;67222;50.182;8.734;2023-02-28T22:38:39;12.02;;;6.43;;